createdAt,value
2019-02-27T00:05:01.382Z,20.08
2019-02-27T00:10:06.831Z,20.15
2019-02-27T00:15:10.134Z,6.58
2019-02-27T00:20:19.429Z,15.08
2019-02-27T00:25:22.895Z,15.43
2019-02-27T00:30:27.582Z,17.48
2019-02-27T00:35:30.741Z,15.53
2019-02-27T00:40:39.291Z,13.90
2019-02-27T00:45:43.361Z,13.98
2019-02-27T00:50:46.930Z,9.20
2019-02-27T00:55:52.449Z,14.18
2019-02-27T01:00:55.765Z,13.70
2019-02-27T01:05:59.130Z,9.08
2019-02-27T01:11:02.749Z,15.30
2019-02-27T01:16:07.098Z,2.20
2019-02-27T01:21:10.409Z,16.17
2019-02-27T01:26:15.376Z,11.40
2019-02-27T01:31:21.933Z,12.18
2019-02-27T01:36:25.703Z,16.05
2019-02-27T01:41:29.537Z,17.70
2019-02-27T01:46:34.814Z,17.98
2019-02-27T01:51:38.860Z,13.38
2019-02-27T01:56:42.635Z,15.65
2019-02-27T02:01:47.389Z,16.95
2019-02-27T02:06:50.494Z,14.58
2019-02-27T02:11:54.233Z,15.60
2019-02-27T02:17:41.972Z,10.85
2019-02-27T02:24:20.936Z,14.85
2019-02-27T02:30:11.744Z,14.45
2019-02-27T02:36:10.532Z,14.03
2019-02-27T02:47:44.249Z,4.40
2019-02-27T02:59:33.202Z,24.45
2019-02-27T03:05:38.117Z,20.80
2019-02-27T03:11:18.989Z,15.80
2019-02-27T03:17:17.884Z,15.45
2019-02-27T03:23:05.818Z,12.35
2019-02-27T03:28:59.432Z,15.30
2019-02-27T03:35:09.526Z,8.40
2019-02-27T03:41:25.724Z,14.43
2019-02-27T03:47:17.181Z,16.02
2019-02-27T03:53:19.745Z,15.63
2019-02-27T03:59:47.331Z,18.30
2019-02-27T04:05:32.004Z,15.60
2019-02-27T04:10:35.838Z,13.00
2019-02-27T04:15:41.478Z,14.18
2019-02-27T04:20:50.875Z,10.90
2019-02-27T04:25:52.519Z,18.00
2019-02-27T04:30:56.488Z,7.58
2019-02-27T04:36:00.400Z,17.37
2019-02-27T04:41:03.830Z,10.23
2019-02-27T04:46:07.558Z,25.15
2019-02-27T04:51:17.178Z,15.78
2019-02-27T04:56:24.075Z,20.43
2019-02-27T05:01:28.212Z,20.12
2019-02-27T05:06:32.620Z,13.70
2019-02-27T05:11:36.627Z,14.90
2019-02-27T05:16:40.398Z,15.13
2019-02-27T05:21:44.023Z,18.35
2019-02-27T05:26:48.945Z,19.75
2019-02-27T05:31:54.191Z,16.12
2019-02-27T05:37:13.892Z,21.85
2019-02-27T05:42:18.616Z,28.02
2019-02-27T05:47:22.136Z,13.85
2019-02-27T05:52:25.447Z,19.23
2019-02-27T05:57:31.426Z,20.32
2019-02-27T06:02:35.382Z,25.10
2019-02-27T06:07:39.816Z,18.17
2019-02-27T06:12:43.196Z,17.12
2019-02-27T06:17:50.588Z,21.35
2019-02-27T06:22:56.291Z,30.25
2019-02-27T06:28:00.138Z,21.42
2019-02-27T06:33:04.190Z,22.95
2019-02-27T06:38:08.300Z,20.12
2019-02-27T06:43:11.629Z,21.45
2019-02-27T06:48:16.214Z,22.35
2019-02-27T06:53:20.310Z,23.98
2019-02-27T06:58:23.696Z,26.00
2019-02-27T07:03:29.562Z,19.15
2019-02-27T07:08:38.032Z,33.38
2019-02-27T07:13:43.376Z,31.20
2019-02-27T07:18:49.421Z,21.27
2019-02-27T07:23:58.491Z,32.30
2019-02-27T07:29:06.866Z,29.27
2019-02-27T07:34:14.216Z,26.57
2019-02-27T07:39:17.293Z,19.23
2019-02-27T07:44:20.991Z,31.75
2019-02-27T07:49:24.321Z,17.25
2019-02-27T07:54:29.140Z,13.40
2019-02-27T07:59:38.143Z,19.62
2019-02-27T08:04:41.952Z,21.93
2019-02-27T08:09:45.048Z,13.05
2019-02-27T08:14:49.604Z,19.87
2019-02-27T08:19:53.170Z,17.50
2019-02-27T08:24:56.524Z,17.65
2019-02-27T08:30:00.001Z,17.70
2019-02-27T08:35:04.064Z,19.92
2019-02-27T08:40:07.956Z,8.68
2019-02-27T08:45:19.624Z,17.82
2019-02-27T08:50:18.244Z,14.20
2019-02-27T08:55:22.974Z,13.45
2019-02-27T09:00:26.385Z,7.22
2019-02-27T09:05:30.230Z,9.98
2019-02-27T09:10:33.592Z,19.07
2019-02-27T09:15:36.946Z,17.70
2019-02-27T09:20:40.166Z,12.10
2019-02-27T09:25:46.070Z,17.20
2019-02-27T09:30:50.453Z,9.33
2019-02-27T09:35:55.234Z,4.53
2019-02-27T09:40:58.523Z,6.20
2019-02-27T09:46:01.903Z,14.03
2019-02-27T09:51:05.348Z,10.93
2019-02-27T09:56:08.938Z,10.40
2019-02-27T10:01:17.069Z,12.47
2019-02-27T10:06:20.514Z,6.42
2019-02-27T10:11:24.707Z,6.35
2019-02-27T10:16:28.167Z,17.37
2019-02-27T10:21:32.420Z,8.48
2019-02-27T10:26:35.724Z,8.50
2019-02-27T10:31:39.060Z,9.88
2019-02-27T10:36:44.106Z,7.75
2019-02-27T10:41:50.570Z,10.70
2019-02-27T10:46:53.827Z,6.95
2019-02-27T10:51:57.517Z,10.63
2019-02-27T10:57:00.860Z,6.62
2019-02-27T11:02:04.103Z,12.25
2019-02-27T11:07:07.685Z,6.65
2019-02-27T11:12:12.218Z,11.50
2019-02-27T11:17:16.296Z,12.80
2019-02-27T11:22:19.612Z,7.97
2019-02-27T11:27:23.922Z,11.22
2019-02-27T11:32:27.538Z,6.08
2019-02-27T11:37:31.990Z,6.78
2019-02-27T11:42:35.029Z,5.97
2019-02-27T11:47:39.154Z,8.48
2019-02-27T11:52:48.781Z,12.90
2019-02-27T11:57:48.041Z,8.10
2019-02-27T12:02:52.087Z,8.10
2019-02-27T12:07:56.035Z,10.93
2019-02-27T12:13:00.886Z,3.17
2019-02-27T12:18:05.603Z,1.62
2019-02-27T12:23:10.098Z,5.95
2019-02-27T12:28:17.356Z,2.55
2019-02-27T12:33:20.029Z,6.37
2019-02-27T12:38:23.708Z,4.10
2019-02-27T12:43:27.285Z,2.65
2019-02-27T12:48:30.600Z,3.12
2019-02-27T12:53:33.719Z,5.33
2019-02-27T12:58:36.877Z,2.75
2019-02-27T13:03:42.447Z,9.40
2019-02-27T13:08:46.794Z,4.05
2019-02-27T13:13:49.961Z,13.83
2019-02-27T13:18:53.855Z,9.35
2019-02-27T13:23:57.258Z,3.52
2019-02-27T13:29:01.236Z,10.43
2019-02-27T13:34:05.236Z,7.22
2019-02-27T13:39:08.333Z,6.28
2019-02-27T13:44:11.901Z,11.18
2019-02-27T13:49:15.227Z,8.30
2019-02-27T13:54:18.822Z,6.67
2019-02-27T13:59:23.008Z,15.60
2019-02-27T14:04:26.878Z,6.75
2019-02-27T14:09:30.492Z,11.78
2019-02-27T14:14:33.884Z,7.45
2019-02-27T14:19:37.804Z,11.33
2019-02-27T14:24:41.095Z,8.55
2019-02-27T14:29:44.197Z,4.50
2019-02-27T14:34:47.471Z,1.37
2019-02-27T14:39:51.060Z,3.15
2019-02-27T14:44:54.035Z,4.22
2019-02-27T14:49:59.348Z,5.45
2019-02-27T14:55:03.505Z,8.50
2019-02-27T15:00:13.244Z,7.47
2019-02-27T15:05:16.454Z,6.72
2019-02-27T15:10:20.296Z,11.45
2019-02-27T15:15:25.633Z,7.28
2019-02-27T15:20:29.195Z,6.92
2019-02-27T15:25:32.184Z,8.75
2019-02-27T15:30:36.709Z,12.98
2019-02-27T15:35:41.614Z,4.97
2019-02-27T15:40:45.292Z,10.32
2019-02-27T15:45:49.180Z,10.72
2019-02-27T15:50:56.409Z,13.62
2019-02-27T15:55:58.884Z,8.33
2019-02-27T16:01:02.918Z,11.10
2019-02-27T16:06:06.707Z,17.17
2019-02-27T16:11:10.444Z,5.55
2019-02-27T16:16:13.790Z,14.45
2019-02-27T16:21:17.551Z,13.62
2019-02-27T16:26:20.957Z,12.88
2019-02-27T16:31:24.323Z,13.08
2019-02-27T16:36:35.984Z,13.53
2019-02-27T16:41:32.840Z,6.78
2019-02-27T16:46:43.577Z,8.35
2019-02-27T16:51:41.883Z,12.03
2019-02-27T16:56:47.542Z,13.35
2019-02-27T17:01:51.802Z,12.68
2019-02-27T17:06:56.039Z,14.90
2019-02-27T17:11:59.207Z,16.82
2019-02-27T17:17:02.696Z,19.65
2019-02-27T17:22:06.677Z,10.78
2019-02-27T17:27:12.549Z,20.55
2019-02-27T17:32:14.496Z,16.62
2019-02-27T17:37:18.390Z,19.55
2019-02-27T17:42:22.152Z,19.87
2019-02-27T17:47:28.839Z,17.85
2019-02-27T17:52:33.332Z,18.07
2019-02-27T17:57:37.208Z,20.90
2019-02-27T18:02:40.551Z,23.70
2019-02-27T18:07:45.085Z,24.40
2019-02-27T18:13:01.428Z,23.57
2019-02-27T18:18:07.505Z,27.63
2019-02-27T18:23:11.457Z,31.30
2019-02-27T18:28:14.557Z,34.78
2019-02-27T18:33:17.898Z,36.00
2019-02-27T18:38:21.284Z,31.75
2019-02-27T18:43:27.253Z,33.18
2019-02-27T18:48:30.825Z,37.83
2019-02-27T18:53:35.294Z,31.15
2019-02-27T18:58:38.928Z,33.13
2019-02-27T19:03:42.170Z,33.60
2019-02-27T19:08:45.502Z,30.90
2019-02-27T19:13:48.625Z,33.50
2019-02-27T19:18:51.832Z,33.02
2019-02-27T19:23:54.958Z,33.10
2019-02-27T19:28:59.587Z,36.83
2019-02-27T19:34:03.648Z,34.67
2019-02-27T19:39:07.499Z,35.88
2019-02-27T19:44:10.968Z,30.70
2019-02-27T19:49:16.294Z,32.15
2019-02-27T19:54:19.637Z,35.33
2019-02-27T19:59:24.880Z,27.55
2019-02-27T20:04:28.406Z,27.22
2019-02-27T20:09:31.723Z,20.20
2019-02-27T20:14:36.682Z,15.35
2019-02-27T20:19:40.598Z,25.72
2019-02-27T20:24:43.868Z,37.53
2019-02-27T20:29:47.423Z,21.70
2019-02-27T20:34:50.909Z,38.00
2019-02-27T20:39:58.345Z,39.13
2019-02-27T20:44:59.575Z,48.13
2019-02-27T20:50:03.128Z,42.00
2019-02-27T20:55:07.176Z,29.75
2019-02-27T21:00:12.707Z,30.65
2019-02-27T21:05:16.099Z,32.38
2019-02-27T21:10:23.229Z,43.10
2019-02-27T21:15:29.277Z,43.78
2019-02-27T21:20:33.206Z,28.12
2019-02-27T21:25:37.008Z,37.73
2019-02-27T21:30:40.184Z,36.93
2019-02-27T21:35:44.664Z,41.85
2019-02-27T21:40:48.573Z,52.00
2019-02-27T21:46:11.731Z,46.58
2019-02-27T21:51:14.485Z,53.63
2019-02-27T21:56:18.032Z,56.53
2019-02-27T22:01:22.708Z,47.33
2019-02-27T22:06:27.501Z,39.13
2019-02-27T22:11:32.000Z,27.77
2019-02-27T22:16:35.655Z,53.15
2019-02-27T22:21:40.541Z,40.78
2019-02-27T22:26:43.737Z,24.02
2019-02-27T22:31:47.492Z,42.90
2019-02-27T22:36:51.068Z,46.63
2019-02-27T22:41:54.203Z,48.45
2019-02-27T22:47:10.492Z,29.12
2019-02-27T22:52:13.814Z,36.90
2019-02-27T22:57:17.299Z,48.30
2019-02-27T23:02:23.175Z,54.48
2019-02-27T23:07:27.576Z,42.90
2019-02-27T23:12:31.217Z,43.85
2019-02-27T23:17:34.850Z,45.80
2019-02-27T23:22:41.953Z,37.53
2019-02-27T23:27:46.070Z,33.35
2019-02-27T23:32:49.708Z,52.88
2019-02-27T23:37:53.083Z,37.88
2019-02-27T23:43:03.425Z,26.52
2019-02-27T23:48:05.633Z,35.35
2019-02-27T23:53:08.646Z,38.45
2019-02-27T23:58:11.645Z,41.68
